createdAt,value
2019-03-23T00:00:49.483Z,25.90
2019-03-23T00:03:17.958Z,26.87
2019-03-23T00:05:46.417Z,25.93
2019-03-23T00:08:14.862Z,26.60
2019-03-23T00:10:43.348Z,27.93
2019-03-23T00:13:11.841Z,25.13
2019-03-23T00:15:40.577Z,27.37
2019-03-23T00:18:09.049Z,25.50
2019-03-23T00:20:37.531Z,27.30
2019-03-23T00:23:05.982Z,31.50
2019-03-23T00:25:34.467Z,27.67
2019-03-23T00:28:02.957Z,28.17
2019-03-23T00:30:31.418Z,28.80
2019-03-23T00:32:59.918Z,26.60
2019-03-23T00:35:28.379Z,29.90
2019-03-23T00:37:56.889Z,28.57
2019-03-23T00:40:25.347Z,30.13
2019-03-23T00:42:53.817Z,25.20
2019-03-23T00:45:22.284Z,27.10
2019-03-23T00:47:50.762Z,27.70
2019-03-23T00:50:19.495Z,31.50
2019-03-23T00:52:47.978Z,30.20
2019-03-23T00:55:16.449Z,28.27
2019-03-23T00:57:44.922Z,27.33
2019-03-23T01:00:14.123Z,25.13
2019-03-23T01:02:42.655Z,31.20
2019-03-23T01:05:11.517Z,28.90
2019-03-23T01:07:40.003Z,28.43
2019-03-23T01:10:10.611Z,27.87
2019-03-23T01:12:39.099Z,28.63
2019-03-23T01:15:09.707Z,30.47
2019-03-23T01:17:38.277Z,33.40
2019-03-23T01:20:11.850Z,29.60
2019-03-23T01:22:40.415Z,30.73
2019-03-23T01:25:10.435Z,28.17
2019-03-23T01:27:39.169Z,28.77
2019-03-23T01:30:10.297Z,31.17
2019-03-23T01:32:38.768Z,31.03
2019-03-23T01:35:07.901Z,29.47
2019-03-23T01:37:36.633Z,26.53
2019-03-23T01:40:06.964Z,29.57
2019-03-23T01:42:35.412Z,29.33
2019-03-23T01:45:09.583Z,31.17
2019-03-23T01:47:38.037Z,30.10
2019-03-23T01:50:08.077Z,31.13
2019-03-23T01:52:36.619Z,30.27
2019-03-23T01:55:07.001Z,29.90
2019-03-23T01:57:35.497Z,30.40
2019-03-23T02:00:07.015Z,27.27
2019-03-23T02:02:35.574Z,27.60
2019-03-23T02:05:06.704Z,29.00
2019-03-23T02:07:35.167Z,28.57
2019-03-23T02:10:06.471Z,30.70
2019-03-23T02:12:34.959Z,31.07
2019-03-23T02:15:04.567Z,28.90
2019-03-23T02:17:33.416Z,31.77
2019-03-23T02:20:01.895Z,32.33
2019-03-23T02:22:30.361Z,29.30
2019-03-23T02:24:58.845Z,30.07
2019-03-23T02:27:27.293Z,32.30
2019-03-23T02:29:55.769Z,29.63
2019-03-23T02:32:24.221Z,33.40
2019-03-23T02:34:52.698Z,29.83
2019-03-23T02:37:27.790Z,30.37
2019-03-23T02:39:51.373Z,34.07
2019-03-23T02:42:20.181Z,33.60
2019-03-23T02:44:48.716Z,30.90
2019-03-23T02:47:17.208Z,30.40
2019-03-23T02:49:45.688Z,29.60
2019-03-23T02:52:14.154Z,28.73
2019-03-23T02:54:42.615Z,28.87
2019-03-23T02:57:11.090Z,29.97
2019-03-23T02:59:39.562Z,29.33
2019-03-23T03:02:08.041Z,31.80
2019-03-23T03:04:36.819Z,38.00
2019-03-23T03:07:05.442Z,29.27
2019-03-23T03:09:34.003Z,31.63
2019-03-23T03:12:02.480Z,30.83
2019-03-23T03:14:30.950Z,31.40
2019-03-23T03:16:59.416Z,31.53
2019-03-23T03:19:27.909Z,34.53
2019-03-23T03:21:56.412Z,35.00
2019-03-23T03:24:24.942Z,32.50
2019-03-23T03:26:53.413Z,32.03
2019-03-23T03:29:21.874Z,33.63
2019-03-23T03:31:50.332Z,35.87
2019-03-23T03:34:19.112Z,34.37
2019-03-23T03:36:47.575Z,34.57
2019-03-23T03:39:16.083Z,31.37
2019-03-23T03:41:44.551Z,31.27
2019-03-23T03:44:13.352Z,32.93
2019-03-23T03:46:41.836Z,34.73
2019-03-23T03:49:12.640Z,30.10
2019-03-23T03:51:40.518Z,32.93
2019-03-23T03:54:09.322Z,29.67
2019-03-23T03:56:37.797Z,33.20
2019-03-23T03:59:06.299Z,29.43
2019-03-23T04:01:34.831Z,32.87
2019-03-23T04:04:03.307Z,34.80
2019-03-23T04:06:31.803Z,35.20
2019-03-23T04:09:00.346Z,38.37
2019-03-23T04:11:28.809Z,37.90
2019-03-23T04:13:57.294Z,33.97
2019-03-23T04:16:26.064Z,36.83
2019-03-23T04:18:54.795Z,34.67
2019-03-23T04:21:23.293Z,34.90
2019-03-23T04:23:51.842Z,37.17
2019-03-23T04:26:20.324Z,32.63
2019-03-23T04:28:48.800Z,33.57
2019-03-23T04:31:17.339Z,33.10
2019-03-23T04:33:45.822Z,34.70
2019-03-23T04:36:14.294Z,30.67
2019-03-23T04:38:42.758Z,35.10
2019-03-23T04:41:11.240Z,32.33
2019-03-23T04:43:39.723Z,31.33
2019-03-23T04:46:08.192Z,36.33
2019-03-23T04:48:36.675Z,32.60
2019-03-23T04:51:05.405Z,33.73
2019-03-23T04:53:33.899Z,31.00
2019-03-23T04:56:02.370Z,35.33
2019-03-23T04:58:30.823Z,33.40
2019-03-23T05:00:59.380Z,31.47
2019-03-23T05:03:27.835Z,35.97
2019-03-23T05:05:56.324Z,33.93
2019-03-23T05:08:32.913Z,34.07
2019-03-23T05:10:55.005Z,33.80
2019-03-23T05:13:23.473Z,31.30
2019-03-23T05:15:51.939Z,36.93
2019-03-23T05:18:20.428Z,31.90
2019-03-23T05:20:48.877Z,33.50
2019-03-23T05:23:17.356Z,33.03
2019-03-23T05:25:45.842Z,31.87
2019-03-23T05:28:14.326Z,32.10
2019-03-23T05:30:42.826Z,35.97
2019-03-23T05:33:11.542Z,33.77
2019-03-23T05:35:40.020Z,35.13
2019-03-23T05:38:08.490Z,34.00
2019-03-23T05:40:36.954Z,34.17
2019-03-23T05:43:05.424Z,30.97
2019-03-23T05:45:33.882Z,32.83
2019-03-23T05:48:02.339Z,32.43
2019-03-23T05:50:30.815Z,31.90
2019-03-23T05:52:59.275Z,37.83
2019-03-23T05:55:27.769Z,35.60
2019-03-23T05:57:56.758Z,36.43
2019-03-23T06:00:25.280Z,33.10
2019-03-23T06:02:53.725Z,31.27
2019-03-23T06:05:24.593Z,33.07
2019-03-23T06:07:52.492Z,33.57
2019-03-23T06:10:21.239Z,35.07
2019-03-23T06:12:49.708Z,33.60
2019-03-23T06:15:18.154Z,31.93
2019-03-23T06:17:46.638Z,32.77
2019-03-23T06:20:15.171Z,33.60
2019-03-23T06:22:43.667Z,33.70
2019-03-23T06:25:12.133Z,34.03
2019-03-23T06:27:40.919Z,35.33
2019-03-23T06:30:11.228Z,32.03
2019-03-23T06:32:39.675Z,29.07
2019-03-23T06:35:08.693Z,34.13
2019-03-23T06:37:37.162Z,32.33
2019-03-23T06:40:10.197Z,31.80
2019-03-23T06:42:38.940Z,35.53
2019-03-23T06:45:09.731Z,32.07
2019-03-23T06:47:38.191Z,30.60
2019-03-23T06:50:09.015Z,34.60
2019-03-23T06:52:37.475Z,31.27
2019-03-23T06:55:07.409Z,33.60
2019-03-23T06:57:35.939Z,29.90
2019-03-23T07:00:07.429Z,34.60
2019-03-23T07:02:35.881Z,32.03
2019-03-23T07:05:06.312Z,32.63
2019-03-23T07:07:34.848Z,37.50
2019-03-23T07:10:05.549Z,34.93
2019-03-23T07:12:34.042Z,36.63
2019-03-23T07:15:02.667Z,34.47
2019-03-23T07:17:31.159Z,34.90
2019-03-23T07:19:59.616Z,36.73
2019-03-23T07:22:28.103Z,34.37
2019-03-23T07:24:56.587Z,36.47
2019-03-23T07:27:25.061Z,44.00
2019-03-23T07:29:53.556Z,40.60
2019-03-23T07:32:22.036Z,35.80
2019-03-23T07:34:50.519Z,33.37
2019-03-23T07:37:19.071Z,34.50
2019-03-23T07:39:47.536Z,34.20
2019-03-23T07:42:16.077Z,32.23
2019-03-23T07:44:44.571Z,40.40
2019-03-23T07:47:13.037Z,32.20
2019-03-23T07:49:41.517Z,34.83
2019-03-23T07:52:10.052Z,34.93
2019-03-23T07:54:38.523Z,31.87
2019-03-23T07:57:07.365Z,36.10
2019-03-23T07:59:35.847Z,32.80
2019-03-23T08:02:04.621Z,35.77
2019-03-23T08:04:33.087Z,35.03
2019-03-23T08:07:07.532Z,31.17
2019-03-23T08:09:37.894Z,34.97
2019-03-23T08:12:06.336Z,33.53
2019-03-23T08:14:36.167Z,37.07
2019-03-23T08:17:04.991Z,36.20
2019-03-23T08:19:33.451Z,35.43
2019-03-23T08:22:01.922Z,35.37
2019-03-23T08:24:30.416Z,31.80
2019-03-23T08:26:58.890Z,37.73
2019-03-23T08:29:27.656Z,32.57
2019-03-23T08:31:56.135Z,36.00
2019-03-23T08:34:24.627Z,35.40
2019-03-23T08:36:53.083Z,34.53
2019-03-23T08:39:21.647Z,32.80
2019-03-23T08:41:50.112Z,37.27
2019-03-23T08:44:18.584Z,36.43
2019-03-23T08:46:47.077Z,38.03
2019-03-23T08:49:15.539Z,36.83
2019-03-23T08:51:44.006Z,35.10
2019-03-23T08:54:12.499Z,34.03
2019-03-23T08:56:40.979Z,38.43
2019-03-23T08:59:09.425Z,37.50
2019-03-23T09:01:37.929Z,33.63
2019-03-23T09:04:06.392Z,36.90
2019-03-23T09:06:34.857Z,38.80
2019-03-23T09:09:04.869Z,42.37
2019-03-23T09:11:33.355Z,35.30
2019-03-23T09:14:02.179Z,34.97
2019-03-23T09:16:30.956Z,36.97
2019-03-23T09:18:59.445Z,36.50
2019-03-23T09:21:28.233Z,36.67
2019-03-23T09:23:56.699Z,34.47
2019-03-23T09:26:25.196Z,34.37
2019-03-23T09:28:53.646Z,40.43
2019-03-23T09:31:22.228Z,35.53
2019-03-23T09:33:50.816Z,35.93
2019-03-23T09:36:23.056Z,36.87
2019-03-23T09:38:49.482Z,40.27
2019-03-23T09:41:18.015Z,37.03
2019-03-23T09:43:46.502Z,41.77
2019-03-23T09:46:14.955Z,40.83
2019-03-23T09:48:43.451Z,40.60
2019-03-23T09:51:12.265Z,39.30
2019-03-23T09:53:40.741Z,39.17
2019-03-23T09:56:10.949Z,38.17
2019-03-23T09:58:39.432Z,40.40
2019-03-23T10:01:07.919Z,38.10
2019-03-23T10:03:36.379Z,38.93
2019-03-23T10:06:05.979Z,40.63
2019-03-23T10:08:34.699Z,39.70
2019-03-23T10:11:03.181Z,40.67
2019-03-23T10:13:31.913Z,40.53
2019-03-23T10:16:00.395Z,36.93
2019-03-23T10:18:28.899Z,38.53
2019-03-23T10:20:57.431Z,41.87
2019-03-23T10:23:25.936Z,39.27
2019-03-23T10:25:54.408Z,40.23
2019-03-23T10:28:22.905Z,39.47
2019-03-23T10:30:51.656Z,37.90
2019-03-23T10:33:20.115Z,39.03
2019-03-23T10:35:48.603Z,44.07
2019-03-23T10:38:17.077Z,42.87
2019-03-23T10:40:45.569Z,41.00
2019-03-23T10:43:14.072Z,38.83
2019-03-23T10:45:44.342Z,39.93
2019-03-23T10:48:12.809Z,42.17
2019-03-23T10:50:41.337Z,39.23
2019-03-23T10:53:09.831Z,43.37
2019-03-23T10:55:38.722Z,45.83
2019-03-23T10:58:07.218Z,37.17
2019-03-23T11:00:35.689Z,37.93
2019-03-23T11:03:04.218Z,37.77
2019-03-23T11:05:32.706Z,37.33
2019-03-23T11:08:01.174Z,39.03
2019-03-23T11:10:30.034Z,39.10
2019-03-23T11:12:58.492Z,35.63
2019-03-23T11:15:26.964Z,38.93
2019-03-23T11:17:55.451Z,38.90
2019-03-23T11:20:23.917Z,35.53
2019-03-23T11:22:52.730Z,37.43
2019-03-23T11:25:21.209Z,36.60
2019-03-23T11:27:50.015Z,38.90
2019-03-23T11:30:18.650Z,38.80
2019-03-23T11:32:47.127Z,36.43
2019-03-23T11:35:15.723Z,37.60
2019-03-23T11:37:44.400Z,34.40
2019-03-23T11:40:13.136Z,34.10
2019-03-23T11:42:49.875Z,34.23
2019-03-23T11:45:12.259Z,34.50
2019-03-23T11:47:40.792Z,38.00
2019-03-23T11:50:10.188Z,35.90
2019-03-23T11:52:38.773Z,37.67
2019-03-23T11:55:07.991Z,37.07
2019-03-23T11:57:36.805Z,36.33
2019-03-23T12:00:16.126Z,36.53
2019-03-23T12:02:44.699Z,37.53
2019-03-23T12:05:14.140Z,36.53
2019-03-23T12:07:42.587Z,36.40
2019-03-23T12:10:12.612Z,35.20
2019-03-23T12:12:41.433Z,34.93
2019-03-23T12:15:12.051Z,33.83
2019-03-23T12:17:40.952Z,37.47
2019-03-23T12:20:10.531Z,36.83
2019-03-23T12:22:39.052Z,44.00
2019-03-23T12:25:08.189Z,39.50
2019-03-23T12:27:36.664Z,37.87
2019-03-23T12:30:14.517Z,35.37
2019-03-23T12:32:43.297Z,34.73
2019-03-23T12:35:12.269Z,36.87
2019-03-23T12:37:40.817Z,35.70
2019-03-23T12:40:10.867Z,35.03
2019-03-23T12:42:39.595Z,37.20
2019-03-23T12:45:09.087Z,36.80
2019-03-23T12:47:37.588Z,37.17
2019-03-23T12:50:10.485Z,36.77
2019-03-23T12:52:38.955Z,33.07
2019-03-23T12:55:07.788Z,35.13
2019-03-23T12:57:36.243Z,35.77
2019-03-23T13:00:11.139Z,35.73
2019-03-23T13:02:39.624Z,33.97
2019-03-23T13:05:08.427Z,41.77
2019-03-23T13:07:36.881Z,35.83
2019-03-23T13:10:08.011Z,32.77
2019-03-23T13:12:36.533Z,32.53
2019-03-23T13:15:07.921Z,32.43
2019-03-23T13:17:36.395Z,29.37
2019-03-23T13:20:08.694Z,32.80
2019-03-23T13:22:36.921Z,30.50
2019-03-23T13:25:08.498Z,30.27
2019-03-23T13:27:37.547Z,29.90
2019-03-23T13:30:08.805Z,28.67
2019-03-23T13:32:37.270Z,30.47
2019-03-23T13:35:05.806Z,27.53
2019-03-23T13:37:34.651Z,28.60
2019-03-23T13:40:03.973Z,31.10
2019-03-23T13:42:34.122Z,28.17
2019-03-23T13:45:02.884Z,28.73
2019-03-23T13:47:31.369Z,30.43
2019-03-23T13:49:59.844Z,31.53
2019-03-23T13:52:28.360Z,31.83
2019-03-23T13:54:56.823Z,27.90
2019-03-23T13:57:25.287Z,34.90
2019-03-23T13:59:53.773Z,30.30
2019-03-23T14:02:22.236Z,29.03
2019-03-23T14:04:50.693Z,29.97
2019-03-23T14:07:19.614Z,33.63
2019-03-23T14:09:48.108Z,32.73
2019-03-23T14:12:16.867Z,32.17
2019-03-23T14:14:45.412Z,28.60
2019-03-23T14:17:13.888Z,31.63
2019-03-23T14:19:42.389Z,32.10
2019-03-23T14:22:10.847Z,28.73
2019-03-23T14:24:39.349Z,30.87
2019-03-23T14:27:07.816Z,32.73
2019-03-23T14:29:36.293Z,33.43
2019-03-23T14:32:04.780Z,33.57
2019-03-23T14:34:33.241Z,34.23
2019-03-23T14:37:01.714Z,34.40
2019-03-23T14:39:31.157Z,33.13
2019-03-23T14:42:04.913Z,31.90
2019-03-23T14:44:30.025Z,32.63
2019-03-23T14:46:58.511Z,33.73
2019-03-23T14:49:27.285Z,32.13
2019-03-23T14:51:56.061Z,32.37
2019-03-23T14:54:24.541Z,34.03
2019-03-23T14:56:53.007Z,33.70
2019-03-23T14:59:21.475Z,34.60
2019-03-23T15:01:49.950Z,34.97
2019-03-23T15:04:18.440Z,34.43
2019-03-23T15:06:46.886Z,38.17
2019-03-23T15:09:15.362Z,36.23
2019-03-23T15:11:43.821Z,36.33
2019-03-23T15:14:12.312Z,34.97
2019-03-23T15:16:40.775Z,33.80
2019-03-23T15:19:09.244Z,36.33
2019-03-23T15:21:37.744Z,39.00
2019-03-23T15:24:06.190Z,36.27
2019-03-23T15:26:35.011Z,36.67
2019-03-23T15:29:03.507Z,40.77
2019-03-23T15:31:31.981Z,38.10
2019-03-23T15:34:00.438Z,37.83
2019-03-23T15:36:28.923Z,34.60
2019-03-23T15:38:57.383Z,39.40
2019-03-23T15:41:25.896Z,36.43
2019-03-23T15:43:54.372Z,36.00
2019-03-23T15:46:22.835Z,38.43
2019-03-23T15:48:51.311Z,39.77
2019-03-23T15:51:19.775Z,38.93
2019-03-23T15:53:48.535Z,38.40
2019-03-23T15:56:16.985Z,39.90
2019-03-23T15:58:45.451Z,41.43
2019-03-23T16:01:13.950Z,40.77
2019-03-23T16:03:42.412Z,39.03
2019-03-23T16:06:10.910Z,40.43
2019-03-23T16:08:39.713Z,42.00
2019-03-23T16:11:08.179Z,40.80
2019-03-23T16:13:36.671Z,43.20
2019-03-23T16:16:05.213Z,39.63
2019-03-23T16:18:33.699Z,37.70
2019-03-23T16:21:02.421Z,37.77
2019-03-23T16:23:30.918Z,40.10
2019-03-23T16:25:59.373Z,39.70
2019-03-23T16:28:27.848Z,39.20
2019-03-23T16:30:56.339Z,35.73
2019-03-23T16:33:24.872Z,41.37
2019-03-23T16:35:53.340Z,39.07
2019-03-23T16:38:21.832Z,35.20
2019-03-23T16:40:50.318Z,39.43
2019-03-23T16:43:18.783Z,38.90
2019-03-23T16:45:47.268Z,39.23
2019-03-23T16:48:15.725Z,40.07
2019-03-23T16:50:44.199Z,38.17
2019-03-23T16:53:12.675Z,38.27
2019-03-23T16:55:41.133Z,37.47
2019-03-23T16:58:16.005Z,37.67
2019-03-23T17:00:39.987Z,36.43
2019-03-23T17:03:08.558Z,37.30
2019-03-23T17:05:37.097Z,41.13
2019-03-23T17:08:05.717Z,36.73
2019-03-23T17:10:34.197Z,36.47
2019-03-23T17:13:03.011Z,37.00
2019-03-23T17:15:31.631Z,33.70
2019-03-23T17:18:00.102Z,37.13
2019-03-23T17:20:28.576Z,37.90
2019-03-23T17:22:57.068Z,35.90
2019-03-23T17:25:25.521Z,34.53
2019-03-23T17:27:54.024Z,32.53
2019-03-23T17:30:22.507Z,35.00
2019-03-23T17:32:51.002Z,33.83
2019-03-23T17:35:19.747Z,32.50
2019-03-23T17:37:48.210Z,39.07
2019-03-23T17:40:16.687Z,35.10
2019-03-23T17:42:45.422Z,36.10
2019-03-23T17:45:13.997Z,36.17
2019-03-23T17:47:42.469Z,33.03
2019-03-23T17:50:11.581Z,33.27
2019-03-23T17:52:40.062Z,36.63
2019-03-23T17:55:08.663Z,32.47
2019-03-23T17:57:37.154Z,35.03
2019-03-23T18:00:10.613Z,33.77
2019-03-23T18:02:39.171Z,32.47
2019-03-23T18:05:08.675Z,31.87
2019-03-23T18:07:37.163Z,32.10
2019-03-23T18:10:07.494Z,32.53
2019-03-23T18:12:35.951Z,31.53
2019-03-23T18:15:07.648Z,32.40
2019-03-23T18:17:36.165Z,31.03
2019-03-23T18:20:06.270Z,34.47
2019-03-23T18:22:34.760Z,31.90
2019-03-23T18:25:04.282Z,33.97
2019-03-23T18:27:32.753Z,32.93
2019-03-23T18:30:01.222Z,31.40
2019-03-23T18:32:29.759Z,30.47
2019-03-23T18:34:58.211Z,33.10
2019-03-23T18:37:26.778Z,30.43
2019-03-23T18:39:55.293Z,28.97
2019-03-23T18:42:23.755Z,32.00
2019-03-23T18:44:52.599Z,31.93
2019-03-23T18:47:21.079Z,33.70
2019-03-23T18:49:49.538Z,33.20
2019-03-23T18:52:18.019Z,28.47
2019-03-23T18:54:46.494Z,32.73
2019-03-23T18:57:15.047Z,31.50
2019-03-23T18:59:43.895Z,30.77
2019-03-23T19:02:12.358Z,34.90
2019-03-23T19:04:40.869Z,35.00
2019-03-23T19:07:09.342Z,33.17
2019-03-23T19:09:37.813Z,31.40
2019-03-23T19:12:06.314Z,31.90
2019-03-23T19:14:34.803Z,35.67
2019-03-23T19:17:03.267Z,33.57
2019-03-23T19:19:31.749Z,31.83
2019-03-23T19:22:00.213Z,33.37
2019-03-23T19:24:28.775Z,34.00
2019-03-23T19:26:57.248Z,32.63
2019-03-23T19:29:27.637Z,35.27
2019-03-23T19:31:55.921Z,37.20
2019-03-23T19:34:24.383Z,37.40
2019-03-23T19:36:53.180Z,35.70
2019-03-23T19:39:21.653Z,35.07
2019-03-23T19:41:50.101Z,38.80
2019-03-23T19:44:18.572Z,38.97
2019-03-23T19:46:47.066Z,37.33
2019-03-23T19:49:15.532Z,40.03
2019-03-23T19:51:44.014Z,41.50
2019-03-23T19:54:12.541Z,40.20
2019-03-23T19:56:41.041Z,41.80
2019-03-23T19:59:09.501Z,40.77
2019-03-23T20:01:37.979Z,42.70
2019-03-23T20:04:06.457Z,42.27
2019-03-23T20:06:34.999Z,39.77
2019-03-23T20:09:05.283Z,41.37
2019-03-23T20:11:33.803Z,39.70
2019-03-23T20:14:02.423Z,41.17
2019-03-23T20:16:30.889Z,44.73
2019-03-23T20:18:59.348Z,45.63
2019-03-23T20:21:27.818Z,42.70
2019-03-23T20:23:56.576Z,41.10
2019-03-23T20:26:25.068Z,44.13
2019-03-23T20:28:53.848Z,41.97
2019-03-23T20:31:22.331Z,44.43
2019-03-23T20:33:50.805Z,40.53
2019-03-23T20:36:19.291Z,40.07
2019-03-23T20:38:47.765Z,41.77
2019-03-23T20:41:16.213Z,40.40
2019-03-23T20:43:45.053Z,41.57
2019-03-23T20:46:13.593Z,40.17
2019-03-23T20:48:42.973Z,44.57
2019-03-23T20:51:11.985Z,43.40
2019-03-23T20:53:40.462Z,42.70
2019-03-23T20:56:08.925Z,41.00
2019-03-23T20:58:37.495Z,43.20
2019-03-23T21:01:05.976Z,41.63
2019-03-23T21:03:34.743Z,39.60
2019-03-23T21:06:03.285Z,44.23
2019-03-23T21:08:31.748Z,44.03
2019-03-23T21:11:00.491Z,43.57
2019-03-23T21:13:28.961Z,46.33
2019-03-23T21:15:57.476Z,42.63
2019-03-23T21:18:25.931Z,43.07
2019-03-23T21:20:54.398Z,46.33
2019-03-23T21:23:22.879Z,39.60
2019-03-23T21:25:51.353Z,44.40
2019-03-23T21:28:19.839Z,46.37
2019-03-23T21:30:48.385Z,42.87
2019-03-23T21:33:17.243Z,42.07
2019-03-23T21:35:45.698Z,40.10
2019-03-23T21:38:14.187Z,42.30
2019-03-23T21:40:42.635Z,43.37
2019-03-23T21:43:11.109Z,41.47
2019-03-23T21:45:39.643Z,46.37
2019-03-23T21:48:08.263Z,43.83
2019-03-23T21:50:46.767Z,53.10
2019-03-23T21:53:06.951Z,47.20
2019-03-23T21:55:35.431Z,51.30
2019-03-23T21:58:03.993Z,43.57
2019-03-23T22:00:34.198Z,44.73
2019-03-23T22:03:03.121Z,43.00
2019-03-23T22:05:31.861Z,45.33
2019-03-23T22:08:00.318Z,45.87
2019-03-23T22:10:28.868Z,45.57
2019-03-23T22:12:57.365Z,41.93
2019-03-23T22:15:27.532Z,41.97
2019-03-23T22:17:56.036Z,41.53
2019-03-23T22:20:24.494Z,41.20
2019-03-23T22:22:52.994Z,43.80
2019-03-23T22:25:21.455Z,47.30
2019-03-23T22:27:50.178Z,42.57
2019-03-23T22:30:18.746Z,42.47
2019-03-23T22:32:47.216Z,40.60
2019-03-23T22:35:15.688Z,40.80
2019-03-23T22:37:44.184Z,41.80
2019-03-23T22:40:14.945Z,45.50
2019-03-23T22:42:43.436Z,41.40
2019-03-23T22:45:12.753Z,42.20
2019-03-23T22:47:41.207Z,39.70
2019-03-23T22:50:10.420Z,45.37
2019-03-23T22:52:38.924Z,48.97
2019-03-23T22:55:07.578Z,41.80
2019-03-23T22:57:36.147Z,43.97
2019-03-23T23:00:10.463Z,41.80
2019-03-23T23:02:39.281Z,41.50
2019-03-23T23:05:08.117Z,45.10
2019-03-23T23:07:36.575Z,44.67
2019-03-23T23:10:08.257Z,44.00
2019-03-23T23:12:36.729Z,43.83
2019-03-23T23:15:07.140Z,44.60
2019-03-23T23:17:35.699Z,44.50
2019-03-23T23:20:09.441Z,41.03
2019-03-23T23:22:37.946Z,44.97
2019-03-23T23:25:07.450Z,48.67
2019-03-23T23:27:36.459Z,46.33
2019-03-23T23:30:07.533Z,48.67
2019-03-23T23:32:36.415Z,53.57
2019-03-23T23:35:07.312Z,51.17
2019-03-23T23:37:35.907Z,48.57
2019-03-23T23:40:08.339Z,51.63
2019-03-23T23:42:36.871Z,48.77
2019-03-23T23:45:15.277Z,50.73
2019-03-23T23:47:37.856Z,54.00
2019-03-23T23:50:07.245Z,47.83
2019-03-23T23:52:36.045Z,50.63
2019-03-23T23:55:06.283Z,46.93
2019-03-23T23:57:34.739Z,47.67
